sensor_id;sensor_type;location;lat;lon;timestamp;temperature;humidity
19224;DHT22;9746;47.180;9.776;2023-04-19T10:22:51;18.50;99.90
19224;DHT22;9746;47.180;9.776;2023-04-19T10:25:27;18.40;99.90
19224;DHT22;9746;47.180;9.776;2023-04-19T10:27:57;18.20;99.90
19224;DHT22;9746;47.180;9.776;2023-04-19T10:30:25;18.10;99.90
19224;DHT22;9746;47.180;9.776;2023-04-19T10:32:57;18.10;99.90
19224;DHT22;9746;47.180;9.776;2023-04-19T10:35:26;18.20;99.90
19224;DHT22;9746;47.180;9.776;2023-04-19T10:38:07;17.70;99.90
19224;DHT22;9746;47.180;9.776;2023-04-19T10:41:04;17.90;99.90
19224;DHT22;9746;47.180;9.776;2023-04-19T10:43:37;18.20;99.90
19224;DHT22;9746;47.180;9.776;2023-04-19T10:46:12;18.50;99.90
19224;DHT22;9746;47.180;9.776;2023-04-19T10:48:49;18.30;99.90
19224;DHT22;9746;47.180;9.776;2023-04-19T10:51:19;18.30;99.90
19224;DHT22;9746;47.180;9.776;2023-04-19T10:53:52;18.30;99.90
19224;DHT22;9746;47.180;9.776;2023-04-19T10:59:31;17.90;99.90
19224;DHT22;9746;47.180;9.776;2023-04-19T11:01:59;17.80;99.90
19224;DHT22;9746;47.180;9.776;2023-04-19T11:04:59;17.50;99.90
19224;DHT22;9746;47.180;9.776;2023-04-19T11:07:27;17.20;99.90
19224;DHT22;9746;47.180;9.776;2023-04-19T11:09:58;17.10;99.90
19224;DHT22;9746;47.180;9.776;2023-04-19T11:12:26;17.00;99.90
19224;DHT22;9746;47.180;9.776;2023-04-19T11:14:57;17.00;99.90
19224;DHT22;9746;47.180;9.776;2023-04-19T11:17:26;16.90;99.90
19224;DHT22;9746;47.180;9.776;2023-04-19T11:20:07;16.80;99.90
19224;DHT22;9746;47.180;9.776;2023-04-19T11:22:45;16.90;99.90
19224;DHT22;9746;47.180;9.776;2023-04-19T11:25:18;17.10;99.90
19224;DHT22;9746;47.180;9.776;2023-04-19T11:27:47;17.40;99.90
19224;DHT22;9746;47.180;9.776;2023-04-19T11:30:17;17.30;99.90
19224;DHT22;9746;47.180;9.776;2023-04-19T11:32:47;17.20;99.90
19224;DHT22;9746;47.180;9.776;2023-04-19T11:35:18;17.00;99.90
19224;DHT22;9746;47.180;9.776;2023-04-19T11:37:46;17.00;99.90
19224;DHT22;9746;47.180;9.776;2023-04-19T11:40:17;16.80;99.90
19224;DHT22;9746;47.180;9.776;2023-04-19T11:42:45;16.60;99.90
19224;DHT22;9746;47.180;9.776;2023-04-19T11:45:26;16.70;99.90
19224;DHT22;9746;47.180;9.776;2023-04-19T11:47:58;16.60;99.90
19224;DHT22;9746;47.180;9.776;2023-04-19T11:50:56;16.70;99.90
19224;DHT22;9746;47.180;9.776;2023-04-19T11:53:25;16.80;99.90
19224;DHT22;9746;47.180;9.776;2023-04-19T11:55:55;16.90;99.90
19224;DHT22;9746;47.180;9.776;2023-04-19T11:58:26;17.10;99.90
19224;DHT22;9746;47.180;9.776;2023-04-19T12:00:55;17.20;99.90
19224;DHT22;9746;47.180;9.776;2023-04-19T12:03:24;17.00;99.90
19224;DHT22;9746;47.180;9.776;2023-04-19T12:05:54;16.80;99.90
19224;DHT22;9746;47.180;9.776;2023-04-19T12:08:42;16.70;99.90
19224;DHT22;9746;47.180;9.776;2023-04-19T12:11:12;16.70;99.90
19224;DHT22;9746;47.180;9.776;2023-04-19T12:13:40;16.90;99.90
19224;DHT22;9746;47.180;9.776;2023-04-19T12:16:10;17.20;99.90
19224;DHT22;9746;47.180;9.776;2023-04-19T12:18:48;17.50;99.90
19224;DHT22;9746;47.180;9.776;2023-04-19T12:21:26;17.60;99.90
19224;DHT22;9746;47.180;9.776;2023-04-19T12:23:55;17.90;99.90
19224;DHT22;9746;47.180;9.776;2023-04-19T12:26:26;17.90;99.90
19224;DHT22;9746;47.180;9.776;2023-04-19T12:28:55;17.80;99.90
19224;DHT22;9746;47.180;9.776;2023-04-19T12:31:23;17.80;99.90
19224;DHT22;9746;47.180;9.776;2023-04-19T12:33:53;17.80;99.90
19224;DHT22;9746;47.180;9.776;2023-04-19T12:36:21;17.90;99.90
19224;DHT22;9746;47.180;9.776;2023-04-19T12:38:55;17.90;99.90
19224;DHT22;9746;47.180;9.776;2023-04-19T12:41:24;17.80;99.90
19224;DHT22;9746;47.180;9.776;2023-04-19T12:43:51;17.50;99.90
19224;DHT22;9746;47.180;9.776;2023-04-19T12:46:19;17.30;99.90
19224;DHT22;9746;47.180;9.776;2023-04-19T12:48:46;17.10;99.90
19224;DHT22;9746;47.180;9.776;2023-04-19T12:51:14;16.90;99.90
19224;DHT22;9746;47.180;9.776;2023-04-19T12:53:44;16.70;99.90
19224;DHT22;9746;47.180;9.776;2023-04-19T12:56:13;16.60;99.90
19224;DHT22;9746;47.180;9.776;2023-04-19T12:58:43;16.40;99.90
19224;DHT22;9746;47.180;9.776;2023-04-19T13:01:10;16.20;99.90
19224;DHT22;9746;47.180;9.776;2023-04-19T13:03:40;16.00;99.90
19224;DHT22;9746;47.180;9.776;2023-04-19T13:06:07;15.80;99.90
19224;DHT22;9746;47.180;9.776;2023-04-19T13:08:36;15.80;99.90
19224;DHT22;9746;47.180;9.776;2023-04-19T13:11:03;15.80;99.90
19224;DHT22;9746;47.180;9.776;2023-04-19T13:13:31;15.80;99.90
19224;DHT22;9746;47.180;9.776;2023-04-19T13:16:00;15.60;99.90
19224;DHT22;9746;47.180;9.776;2023-04-19T13:18:27;15.50;99.90
19224;DHT22;9746;47.180;9.776;2023-04-19T13:20:55;15.50;99.90
19224;DHT22;9746;47.180;9.776;2023-04-19T13:23:23;15.30;99.90
19224;DHT22;9746;47.180;9.776;2023-04-19T13:25:51;15.10;99.90
19224;DHT22;9746;47.180;9.776;2023-04-19T13:28:19;15.00;99.90
19224;DHT22;9746;47.180;9.776;2023-04-19T13:30:46;15.10;99.90
19224;DHT22;9746;47.180;9.776;2023-04-19T13:33:15;15.00;99.90
19224;DHT22;9746;47.180;9.776;2023-04-19T13:35:44;14.80;99.90
19224;DHT22;9746;47.180;9.776;2023-04-19T13:38:11;14.90;99.90
19224;DHT22;9746;47.180;9.776;2023-04-19T13:40:40;14.90;99.90
19224;DHT22;9746;47.180;9.776;2023-04-19T13:43:07;14.80;99.90
19224;DHT22;9746;47.180;9.776;2023-04-19T13:45:39;14.70;99.90
19224;DHT22;9746;47.180;9.776;2023-04-19T13:48:07;14.70;99.90
19224;DHT22;9746;47.180;9.776;2023-04-19T13:50:36;14.60;99.90
19224;DHT22;9746;47.180;9.776;2023-04-19T13:53:04;14.60;99.90
19224;DHT22;9746;47.180;9.776;2023-04-19T13:55:33;14.60;99.90
19224;DHT22;9746;47.180;9.776;2023-04-19T13:58:01;14.60;99.90
19224;DHT22;9746;47.180;9.776;2023-04-19T14:00:28;14.70;99.90
19224;DHT22;9746;47.180;9.776;2023-04-19T14:02:57;14.70;99.90
19224;DHT22;9746;47.180;9.776;2023-04-19T14:05:31;14.80;99.90
19224;DHT22;9746;47.180;9.776;2023-04-19T14:08:00;14.80;99.90
19224;DHT22;9746;47.180;9.776;2023-04-19T14:10:29;14.70;99.90
19224;DHT22;9746;47.180;9.776;2023-04-19T14:12:56;14.70;99.90
19224;DHT22;9746;47.180;9.776;2023-04-19T14:15:25;14.70;99.90
19224;DHT22;9746;47.180;9.776;2023-04-19T14:17:53;14.60;99.90
19224;DHT22;9746;47.180;9.776;2023-04-19T14:20:20;14.70;99.90
19224;DHT22;9746;47.180;9.776;2023-04-19T14:22:48;14.80;99.90
19224;DHT22;9746;47.180;9.776;2023-04-19T14:25:17;14.80;99.90
19224;DHT22;9746;47.180;9.776;2023-04-19T14:27:44;14.80;99.90
19224;DHT22;9746;47.180;9.776;2023-04-19T14:30:13;14.80;99.90
19224;DHT22;9746;47.180;9.776;2023-04-19T14:32:43;15.00;99.90
19224;DHT22;9746;47.180;9.776;2023-04-19T14:35:23;15.10;99.90
19224;DHT22;9746;47.180;9.776;2023-04-19T14:37:50;15.30;99.90
19224;DHT22;9746;47.180;9.776;2023-04-19T14:40:20;15.20;99.90
19224;DHT22;9746;47.180;9.776;2023-04-19T14:42:48;15.20;99.90
19224;DHT22;9746;47.180;9.776;2023-04-19T14:45:15;15.20;99.90
19224;DHT22;9746;47.180;9.776;2023-04-19T14:47:43;15.20;99.90
19224;DHT22;9746;47.180;9.776;2023-04-19T14:50:10;15.30;99.90
19224;DHT22;9746;47.180;9.776;2023-04-19T14:52:38;15.30;99.90
19224;DHT22;9746;47.180;9.776;2023-04-19T14:55:06;15.40;99.90
19224;DHT22;9746;47.180;9.776;2023-04-19T14:57:35;15.50;99.90
19224;DHT22;9746;47.180;9.776;2023-04-19T15:00:14;15.50;99.90
19224;DHT22;9746;47.180;9.776;2023-04-19T15:02:42;15.40;99.90
19224;DHT22;9746;47.180;9.776;2023-04-19T15:05:10;15.30;99.90
19224;DHT22;9746;47.180;9.776;2023-04-19T15:07:37;15.30;99.90
19224;DHT22;9746;47.180;9.776;2023-04-19T15:10:06;15.20;99.90
19224;DHT22;9746;47.180;9.776;2023-04-19T15:12:35;15.10;99.90
19224;DHT22;9746;47.180;9.776;2023-04-19T15:15:03;15.00;99.90
19224;DHT22;9746;47.180;9.776;2023-04-19T15:17:32;14.80;99.90
19224;DHT22;9746;47.180;9.776;2023-04-19T15:20:11;14.50;99.90
19224;DHT22;9746;47.180;9.776;2023-04-19T15:22:39;14.20;99.90
19224;DHT22;9746;47.180;9.776;2023-04-19T15:25:07;14.00;99.90
19224;DHT22;9746;47.180;9.776;2023-04-19T15:27:36;13.90;99.90
19224;DHT22;9746;47.180;9.776;2023-04-19T15:30:07;13.90;99.90
19224;DHT22;9746;47.180;9.776;2023-04-19T15:32:34;13.90;99.90
19224;DHT22;9746;47.180;9.776;2023-04-19T15:35:04;13.80;99.90
19224;DHT22;9746;47.180;9.776;2023-04-19T15:37:31;13.80;99.90
19224;DHT22;9746;47.180;9.776;2023-04-19T15:40:00;13.80;99.90
19224;DHT22;9746;47.180;9.776;2023-04-19T15:42:27;13.60;99.90
19224;DHT22;9746;47.180;9.776;2023-04-19T15:44:57;13.60;99.90
19224;DHT22;9746;47.180;9.776;2023-04-19T15:47:24;13.50;99.90
19224;DHT22;9746;47.180;9.776;2023-04-19T15:49:59;13.40;99.90
19224;DHT22;9746;47.180;9.776;2023-04-19T15:52:26;13.30;99.90
19224;DHT22;9746;47.180;9.776;2023-04-19T15:54:54;13.30;99.90
19224;DHT22;9746;47.180;9.776;2023-04-19T15:57:21;13.30;99.90
19224;DHT22;9746;47.180;9.776;2023-04-19T15:59:49;13.40;99.90
19224;DHT22;9746;47.180;9.776;2023-04-19T16:02:18;13.50;99.90
19224;DHT22;9746;47.180;9.776;2023-04-19T16:04:46;13.50;99.90
19224;DHT22;9746;47.180;9.776;2023-04-19T16:07:13;13.50;99.90
19224;DHT22;9746;47.180;9.776;2023-04-19T16:09:41;13.50;99.90
19224;DHT22;9746;47.180;9.776;2023-04-19T16:12:08;13.50;99.90
19224;DHT22;9746;47.180;9.776;2023-04-19T16:14:36;13.50;99.90
19224;DHT22;9746;47.180;9.776;2023-04-19T16:17:09;13.50;99.90
19224;DHT22;9746;47.180;9.776;2023-04-19T16:19:38;13.50;99.90
19224;DHT22;9746;47.180;9.776;2023-04-19T16:22:24;13.40;99.90
19224;DHT22;9746;47.180;9.776;2023-04-19T16:24:51;13.30;99.90
19224;DHT22;9746;47.180;9.776;2023-04-19T16:27:18;13.20;99.90
19224;DHT22;9746;47.180;9.776;2023-04-19T16:29:46;13.10;99.90
19224;DHT22;9746;47.180;9.776;2023-04-19T16:32:13;13.20;99.90
19224;DHT22;9746;47.180;9.776;2023-04-19T16:34:42;13.20;99.90
19224;DHT22;9746;47.180;9.776;2023-04-19T16:37:10;13.20;99.90
19224;DHT22;9746;47.180;9.776;2023-04-19T16:39:38;13.20;99.90
19224;DHT22;9746;47.180;9.776;2023-04-19T16:42:06;13.20;99.90
19224;DHT22;9746;47.180;9.776;2023-04-19T16:44:35;13.20;99.90
19224;DHT22;9746;47.180;9.776;2023-04-19T16:47:03;13.20;99.90
19224;DHT22;9746;47.180;9.776;2023-04-19T16:49:30;13.20;99.90
19224;DHT22;9746;47.180;9.776;2023-04-19T16:51:59;13.20;99.90
19224;DHT22;9746;47.180;9.776;2023-04-19T16:54:27;13.10;99.90
19224;DHT22;9746;47.180;9.776;2023-04-19T16:56:54;13.10;99.90
19224;DHT22;9746;47.180;9.776;2023-04-19T16:59:23;13.00;99.90
19224;DHT22;9746;47.180;9.776;2023-04-19T17:01:58;13.00;99.90
19224;DHT22;9746;47.180;9.776;2023-04-19T17:04:26;12.90;99.90
19224;DHT22;9746;47.180;9.776;2023-04-19T17:06:53;12.80;99.90
19224;DHT22;9746;47.180;9.776;2023-04-19T17:09:23;12.70;99.90
19224;DHT22;9746;47.180;9.776;2023-04-19T17:12:01;12.70;99.90
19224;DHT22;9746;47.180;9.776;2023-04-19T17:14:32;12.60;99.90
19224;DHT22;9746;47.180;9.776;2023-04-19T17:17:07;12.60;99.90
19224;DHT22;9746;47.180;9.776;2023-04-19T17:19:35;12.50;99.90
19224;DHT22;9746;47.180;9.776;2023-04-19T17:22:03;12.40;99.90
19224;DHT22;9746;47.180;9.776;2023-04-19T17:24:35;12.20;99.90
19224;DHT22;9746;47.180;9.776;2023-04-19T17:27:05;12.10;99.90
19224;DHT22;9746;47.180;9.776;2023-04-19T17:29:32;12.10;99.90
19224;DHT22;9746;47.180;9.776;2023-04-19T17:32:00;12.00;99.90
19224;DHT22;9746;47.180;9.776;2023-04-19T17:34:28;11.90;99.90
19224;DHT22;9746;47.180;9.776;2023-04-19T17:36:58;11.80;99.90
19224;DHT22;9746;47.180;9.776;2023-04-19T17:39:28;11.80;99.90
19224;DHT22;9746;47.180;9.776;2023-04-19T17:42:09;11.70;99.90
19224;DHT22;9746;47.180;9.776;2023-04-19T17:44:36;11.60;99.90
19224;DHT22;9746;47.180;9.776;2023-04-19T17:47:11;11.50;99.90
19224;DHT22;9746;47.180;9.776;2023-04-19T17:49:39;11.20;99.90
19224;DHT22;9746;47.180;9.776;2023-04-19T17:52:07;11.10;99.90
19224;DHT22;9746;47.180;9.776;2023-04-19T17:54:34;11.00;99.90
19224;DHT22;9746;47.180;9.776;2023-04-19T17:57:03;10.90;99.90
19224;DHT22;9746;47.180;9.776;2023-04-19T17:59:33;10.90;99.90
19224;DHT22;9746;47.180;9.776;2023-04-19T18:02:09;10.80;99.90
19224;DHT22;9746;47.180;9.776;2023-04-19T18:04:36;10.80;99.90
19224;DHT22;9746;47.180;9.776;2023-04-19T18:07:04;10.80;99.90
19224;DHT22;9746;47.180;9.776;2023-04-19T18:09:33;10.70;99.90
19224;DHT22;9746;47.180;9.776;2023-04-19T18:12:01;10.70;99.90
19224;DHT22;9746;47.180;9.776;2023-04-19T18:14:32;10.70;99.90
19224;DHT22;9746;47.180;9.776;2023-04-19T18:17:01;10.60;99.90
19224;DHT22;9746;47.180;9.776;2023-04-19T18:19:31;10.60;99.90
19224;DHT22;9746;47.180;9.776;2023-04-19T18:21:59;10.50;99.90
19224;DHT22;9746;47.180;9.776;2023-04-19T18:24:29;10.40;99.90
19224;DHT22;9746;47.180;9.776;2023-04-19T18:27:00;10.20;99.90
19224;DHT22;9746;47.180;9.776;2023-04-19T18:29:28;10.10;99.90
19224;DHT22;9746;47.180;9.776;2023-04-19T18:32:06;10.00;99.90
19224;DHT22;9746;47.180;9.776;2023-04-19T18:34:36;9.90;99.90
19224;DHT22;9746;47.180;9.776;2023-04-19T18:37:13;9.90;99.90
19224;DHT22;9746;47.180;9.776;2023-04-19T18:39:40;9.90;99.90
19224;DHT22;9746;47.180;9.776;2023-04-19T18:42:10;9.80;99.90
19224;DHT22;9746;47.180;9.776;2023-04-19T18:44:38;9.70;99.90
19224;DHT22;9746;47.180;9.776;2023-04-19T18:47:09;9.40;99.90
19224;DHT22;9746;47.180;9.776;2023-04-19T18:49:36;9.20;99.90
19224;DHT22;9746;47.180;9.776;2023-04-19T18:52:05;9.10;99.90
19224;DHT22;9746;47.180;9.776;2023-04-19T18:54:32;8.90;99.90
19224;DHT22;9746;47.180;9.776;2023-04-19T18:57:02;8.90;99.90
19224;DHT22;9746;47.180;9.776;2023-04-19T18:59:30;8.80;99.90
19224;DHT22;9746;47.180;9.776;2023-04-19T19:01:58;8.80;99.90
19224;DHT22;9746;47.180;9.776;2023-04-19T19:04:27;8.70;99.90
19224;DHT22;9746;47.180;9.776;2023-04-19T19:06:55;8.80;99.90
19224;DHT22;9746;47.180;9.776;2023-04-19T19:09:22;8.80;99.90
19224;DHT22;9746;47.180;9.776;2023-04-19T19:11:50;8.80;99.90
19224;DHT22;9746;47.180;9.776;2023-04-19T19:14:17;8.80;99.90
19224;DHT22;9746;47.180;9.776;2023-04-19T19:16:46;8.70;99.90
19224;DHT22;9746;47.180;9.776;2023-04-19T19:19:13;8.70;99.90
19224;DHT22;9746;47.180;9.776;2023-04-19T19:21:42;8.60;99.90
19224;DHT22;9746;47.180;9.776;2023-04-19T19:24:09;8.60;99.90
19224;DHT22;9746;47.180;9.776;2023-04-19T19:26:37;8.60;99.90
19224;DHT22;9746;47.180;9.776;2023-04-19T19:29:04;8.60;99.90
19224;DHT22;9746;47.180;9.776;2023-04-19T19:31:33;8.60;99.90
19224;DHT22;9746;47.180;9.776;2023-04-19T19:34:01;8.50;99.90
19224;DHT22;9746;47.180;9.776;2023-04-19T19:36:28;8.50;99.90
19224;DHT22;9746;47.180;9.776;2023-04-19T19:38:58;8.50;99.90
19224;DHT22;9746;47.180;9.776;2023-04-19T19:41:26;8.40;99.90
19224;DHT22;9746;47.180;9.776;2023-04-19T19:43:53;8.50;99.90
19224;DHT22;9746;47.180;9.776;2023-04-19T19:46:21;8.40;99.90
19224;DHT22;9746;47.180;9.776;2023-04-19T19:48:48;8.40;99.90
19224;DHT22;9746;47.180;9.776;2023-04-19T19:51:15;8.30;99.90
19224;DHT22;9746;47.180;9.776;2023-04-19T19:53:43;8.30;99.90
19224;DHT22;9746;47.180;9.776;2023-04-19T19:56:11;8.20;99.90
19224;DHT22;9746;47.180;9.776;2023-04-19T19:58:42;8.20;99.90
19224;DHT22;9746;47.180;9.776;2023-04-19T20:01:10;8.20;99.90
19224;DHT22;9746;47.180;9.776;2023-04-19T20:03:39;8.10;99.90
19224;DHT22;9746;47.180;9.776;2023-04-19T20:06:07;8.00;99.90
19224;DHT22;9746;47.180;9.776;2023-04-19T20:08:39;8.00;99.90
19224;DHT22;9746;47.180;9.776;2023-04-19T20:11:08;7.90;99.90
19224;DHT22;9746;47.180;9.776;2023-04-19T20:13:39;7.80;99.90
19224;DHT22;9746;47.180;9.776;2023-04-19T20:16:07;7.80;99.90
19224;DHT22;9746;47.180;9.776;2023-04-19T20:18:35;7.80;99.90
19224;DHT22;9746;47.180;9.776;2023-04-19T20:21:04;7.70;99.90
19224;DHT22;9746;47.180;9.776;2023-04-19T20:23:31;7.80;99.90
19224;DHT22;9746;47.180;9.776;2023-04-19T20:25:58;7.80;99.90
19224;DHT22;9746;47.180;9.776;2023-04-19T20:28:27;7.80;99.90
19224;DHT22;9746;47.180;9.776;2023-04-19T20:30:56;7.70;99.90
19224;DHT22;9746;47.180;9.776;2023-04-19T20:33:24;7.70;99.90
19224;DHT22;9746;47.180;9.776;2023-04-19T20:35:53;7.70;99.90
19224;DHT22;9746;47.180;9.776;2023-04-19T20:38:24;7.70;99.90
19224;DHT22;9746;47.180;9.776;2023-04-19T20:40:52;7.60;99.90
19224;DHT22;9746;47.180;9.776;2023-04-19T20:43:19;7.50;99.90
19224;DHT22;9746;47.180;9.776;2023-04-19T20:45:48;7.40;99.90
19224;DHT22;9746;47.180;9.776;2023-04-19T20:48:18;7.40;99.90
19224;DHT22;9746;47.180;9.776;2023-04-19T20:50:45;7.40;99.90
19224;DHT22;9746;47.180;9.776;2023-04-19T20:53:13;7.30;99.90
19224;DHT22;9746;47.180;9.776;2023-04-19T20:55:41;7.20;99.90
19224;DHT22;9746;47.180;9.776;2023-04-19T20:58:08;7.10;99.90
19224;DHT22;9746;47.180;9.776;2023-04-19T21:00:36;7.10;99.90
